createdAt,value
2019-01-16T00:02:14.321Z,98128.59
2019-01-16T00:05:03.077Z,98121.09
2019-01-16T00:07:54.774Z,98119.03
2019-01-16T00:10:58.328Z,98125.92
2019-01-16T00:14:02.442Z,98128.64
2019-01-16T00:16:51.067Z,98121.75
2019-01-16T00:19:40.276Z,98121.83
2019-01-16T00:22:39.304Z,98126.50
2019-01-16T00:25:28.316Z,98127.42
2019-01-16T00:28:33.467Z,98128.05
2019-01-16T00:31:40.348Z,98120.70
2019-01-16T00:34:43.565Z,98111.13
2019-01-16T00:37:47.373Z,98115.83
2019-01-16T00:40:47.918Z,98113.68
2019-01-16T00:43:36.617Z,98107.20
2019-01-16T00:46:25.495Z,98094.58
2019-01-16T00:49:20.664Z,98107.56
2019-01-16T00:52:15.497Z,98100.20
2019-01-16T00:55:15.730Z,98099.95
2019-01-16T00:58:05.129Z,98097.10
2019-01-16T01:00:54.052Z,98095.53
2019-01-16T01:03:42.745Z,98109.94
2019-01-16T01:06:31.401Z,98107.64
2019-01-16T01:09:35.119Z,98117.38
2019-01-16T01:12:32.651Z,98108.00
2019-01-16T01:15:21.796Z,98110.09
2019-01-16T01:18:22.681Z,98106.37
2019-01-16T01:21:11.593Z,98110.31
2019-01-16T01:24:03.186Z,98105.03
2019-01-16T01:27:00.644Z,98108.05
2019-01-16T01:29:49.559Z,98114.23
2019-01-16T01:32:54.645Z,98101.66
2019-01-16T01:35:48.860Z,98100.50
2019-01-16T01:38:52.540Z,98102.58
2019-01-16T01:41:57.233Z,98104.91
2019-01-16T01:44:48.682Z,98111.48
2019-01-16T01:47:42.695Z,98110.13
2019-01-16T01:50:31.213Z,98096.41
2019-01-16T01:53:25.905Z,98094.63
2019-01-16T01:56:26.483Z,98095.89
2019-01-16T01:59:30.315Z,98096.84
2019-01-16T02:02:19.180Z,98096.31
2019-01-16T02:05:25.170Z,98094.33
2019-01-16T02:08:22.689Z,98090.28
2019-01-16T02:11:11.288Z,98088.38
2019-01-16T02:14:09.157Z,98085.45
2019-01-16T02:17:04.003Z,98086.73
2019-01-16T02:19:58.888Z,98081.73
2019-01-16T02:22:47.408Z,98082.50
2019-01-16T02:25:38.929Z,98075.80
2019-01-16T02:28:30.435Z,98079.91
2019-01-16T02:31:30.800Z,98070.91
2019-01-16T02:34:19.862Z,98071.91
2019-01-16T02:37:08.595Z,98064.86
2019-01-16T02:39:57.549Z,98063.55
2019-01-16T02:42:46.077Z,98055.02
2019-01-16T02:45:50.166Z,98054.34
2019-01-16T02:48:40.124Z,98063.06
2019-01-16T02:51:37.129Z,98056.66
2019-01-16T02:54:26.270Z,98046.06
2019-01-16T02:57:20.654Z,98041.70
2019-01-16T03:00:15.590Z,98035.86
2019-01-16T03:03:12.989Z,98044.84
2019-01-16T03:06:13.159Z,98043.08
2019-01-16T03:09:18.604Z,98047.73
2019-01-16T03:12:19.266Z,98047.88
2019-01-16T03:15:21.805Z,98047.49
2019-01-16T03:18:19.022Z,98045.53
2019-01-16T03:21:13.798Z,98036.38
2019-01-16T03:24:08.271Z,98039.35
2019-01-16T03:27:03.105Z,98034.22
2019-01-16T03:29:55.019Z,98034.98
2019-01-16T03:32:59.467Z,98031.58
2019-01-16T03:35:57.166Z,98022.38
2019-01-16T03:38:48.274Z,98030.02
2019-01-16T03:41:37.582Z,98021.33
2019-01-16T03:44:29.201Z,98023.95
2019-01-16T03:47:34.735Z,98022.46
2019-01-16T03:50:23.487Z,98017.07
2019-01-16T03:53:18.352Z,98010.12
2019-01-16T03:56:19.280Z,98011.33
2019-01-16T03:59:13.728Z,98004.52
2019-01-16T04:02:10.904Z,98011.66
2019-01-16T04:05:14.775Z,98001.21
2019-01-16T04:08:03.273Z,97995.68
2019-01-16T04:10:51.992Z,98004.64
2019-01-16T04:13:55.650Z,98010.46
2019-01-16T04:17:02.501Z,98002.34
2019-01-16T04:20:00.269Z,98001.28
2019-01-16T04:22:52.351Z,98011.51
2019-01-16T04:25:46.643Z,98002.98
2019-01-16T04:28:44.590Z,97999.05
2019-01-16T04:31:49.117Z,97992.20
2019-01-16T04:34:53.853Z,97999.11
2019-01-16T04:37:58.446Z,97993.39
2019-01-16T04:40:47.080Z,97990.43
2019-01-16T04:43:47.713Z,97992.41
2019-01-16T04:46:42.030Z,97984.39
2019-01-16T04:49:30.819Z,97986.02
2019-01-16T04:52:22.018Z,97991.41
2019-01-16T04:55:28.461Z,97988.61
2019-01-16T04:58:32.577Z,97984.52
2019-01-16T05:01:24.106Z,97981.45
2019-01-16T05:04:13.088Z,97977.20
2019-01-16T05:07:16.781Z,97974.56
2019-01-16T05:10:14.345Z,97976.38
2019-01-16T05:13:19.436Z,97974.10
2019-01-16T05:16:14.345Z,97969.69
2019-01-16T05:19:20.648Z,97967.79
2019-01-16T05:22:12.200Z,97964.16
2019-01-16T05:25:18.554Z,97968.29
2019-01-16T05:28:19.233Z,97964.41
2019-01-16T05:31:16.775Z,97962.65
2019-01-16T05:34:05.637Z,97965.09
2019-01-16T05:37:03.509Z,97967.38
2019-01-16T05:40:08.372Z,97969.02
2019-01-16T05:43:13.221Z,97968.03
2019-01-16T05:46:02.149Z,97962.10
2019-01-16T05:48:53.599Z,97955.30
2019-01-16T05:51:42.504Z,97952.36
2019-01-16T05:54:31.098Z,97959.64
2019-01-16T05:57:19.846Z,97959.36
2019-01-16T06:00:11.727Z,97958.28
2019-01-16T06:03:08.962Z,97956.50
2019-01-16T06:06:00.369Z,97951.70
2019-01-16T06:08:54.826Z,97961.97
2019-01-16T06:11:49.108Z,97953.05
2019-01-16T06:14:38.822Z,97949.19
2019-01-16T06:17:27.696Z,97947.20
2019-01-16T06:20:32.584Z,97947.69
2019-01-16T06:23:27.317Z,97946.70
2019-01-16T06:26:28.075Z,97824.69
2019-01-16T06:29:26.183Z,97934.02
2019-01-16T06:32:15.420Z,97935.48
2019-01-16T06:35:19.243Z,97931.41
2019-01-16T06:38:10.706Z,97927.02
2019-01-16T06:40:59.650Z,97926.21
2019-01-16T06:43:53.653Z,97926.15
2019-01-16T06:46:42.242Z,97926.19
2019-01-16T06:49:43.161Z,97932.66
2019-01-16T06:52:34.624Z,97928.05
2019-01-16T06:55:23.389Z,97930.06
2019-01-16T06:58:27.388Z,97927.59
2019-01-16T07:01:21.549Z,97920.63
2019-01-16T07:04:16.497Z,97920.30
2019-01-16T07:07:11.204Z,97921.95
2019-01-16T07:10:14.860Z,97920.30
2019-01-16T07:13:19.127Z,97921.39
2019-01-16T07:16:17.221Z,97923.62
2019-01-16T07:19:09.077Z,97924.81
2019-01-16T07:22:09.739Z,97911.94
2019-01-16T07:24:58.439Z,97919.89
2019-01-16T07:28:05.374Z,97915.94
2019-01-16T07:31:03.335Z,97905.70
2019-01-16T07:33:52.124Z,97902.97
2019-01-16T07:36:43.489Z,97917.91
2019-01-16T07:39:31.982Z,97903.52
2019-01-16T07:42:32.443Z,97912.87
2019-01-16T07:45:33.650Z,97907.67
2019-01-16T07:48:28.334Z,97910.16
2019-01-16T07:51:26.062Z,97910.42
2019-01-16T07:54:30.209Z,97908.98
2019-01-16T07:57:21.764Z,97910.16
2019-01-16T08:00:13.966Z,97910.80
2019-01-16T08:03:14.537Z,97918.30
2019-01-16T08:06:05.866Z,97923.68
2019-01-16T08:09:09.573Z,97917.50
2019-01-16T08:11:58.261Z,97926.80
2019-01-16T08:15:02.788Z,97938.31
2019-01-16T08:18:03.692Z,97936.12
2019-01-16T08:21:08.792Z,97940.59
2019-01-16T08:23:57.538Z,97936.78
2019-01-16T08:27:04.420Z,97937.23
2019-01-16T08:30:04.904Z,97941.48
2019-01-16T08:33:05.140Z,97941.77
2019-01-16T08:36:03.112Z,97933.82
2019-01-16T08:39:00.381Z,97940.63
2019-01-16T08:41:55.240Z,97938.00
2019-01-16T08:44:58.923Z,97939.22
2019-01-16T08:47:59.488Z,97944.92
2019-01-16T08:51:04.537Z,97929.78
2019-01-16T08:53:56.209Z,97932.64
2019-01-16T08:56:44.996Z,97931.72
2019-01-16T08:59:49.769Z,97927.84
2019-01-16T09:02:53.514Z,97936.68
2019-01-16T09:05:42.196Z,97933.42
2019-01-16T09:08:47.238Z,97941.44
2019-01-16T09:11:45.121Z,97933.14
2019-01-16T09:14:37.086Z,97924.55
2019-01-16T09:17:26.111Z,97928.53
2019-01-16T09:20:18.129Z,97924.85
2019-01-16T09:23:15.623Z,97919.45
2019-01-16T09:26:20.931Z,97920.78
2019-01-16T09:29:15.327Z,97914.12
2019-01-16T09:32:13.034Z,97917.87
2019-01-16T09:35:04.740Z,97915.72
2019-01-16T09:38:11.331Z,97922.75
2019-01-16T09:41:00.247Z,97921.30
2019-01-16T09:44:03.791Z,97923.06
2019-01-16T09:46:54.845Z,97931.72
2019-01-16T09:49:55.702Z,97937.56
2019-01-16T09:52:53.293Z,97937.24
2019-01-16T09:55:45.323Z,97933.63
2019-01-16T09:58:33.940Z,97926.22
2019-01-16T10:01:28.276Z,97918.28
2019-01-16T10:04:26.027Z,97911.63
2019-01-16T10:07:30.061Z,97902.48
2019-01-16T10:10:21.266Z,97904.78
2019-01-16T10:13:15.166Z,97898.59
2019-01-16T10:16:06.544Z,97893.84
2019-01-16T10:18:58.400Z,97898.73
2019-01-16T10:21:53.174Z,97898.08
2019-01-16T10:24:42.359Z,97893.17
2019-01-16T10:27:31.364Z,97891.88
2019-01-16T10:30:38.148Z,97887.63
2019-01-16T10:33:26.907Z,97881.41
2019-01-16T10:36:18.756Z,97881.92
2019-01-16T10:39:09.329Z,97874.89
2019-01-16T10:41:58.014Z,97879.62
2019-01-16T10:44:52.592Z,97879.78
2019-01-16T10:47:41.231Z,97878.30
2019-01-16T10:50:32.436Z,97868.17
2019-01-16T10:53:24.079Z,97856.44
2019-01-16T10:56:12.908Z,97857.23
2019-01-16T10:59:01.989Z,97860.16
2019-01-16T11:01:50.831Z,97860.68
2019-01-16T11:04:51.725Z,97852.14
2019-01-16T11:07:40.633Z,97841.53
2019-01-16T11:10:35.131Z,97842.83
2019-01-16T11:13:26.698Z,97834.82
2019-01-16T11:16:20.850Z,97830.11
2019-01-16T11:19:22.009Z,97822.77
2019-01-16T11:22:16.549Z,97825.71
2019-01-16T11:25:22.218Z,97822.05
2019-01-16T11:28:11.436Z,97819.25
2019-01-16T11:31:08.916Z,97820.15
2019-01-16T11:33:57.486Z,97811.97
2019-01-16T11:36:58.141Z,97807.52
2019-01-16T11:39:49.116Z,97806.89
2019-01-16T11:42:40.638Z,97792.23
2019-01-16T11:45:41.090Z,97778.52
2019-01-16T11:48:42.210Z,97775.61
2019-01-16T11:51:45.877Z,97763.66
2019-01-16T11:54:34.556Z,97767.08
2019-01-16T11:57:34.773Z,97776.16
2019-01-16T12:00:32.594Z,97766.89
2019-01-16T12:03:21.470Z,97772.13
2019-01-16T12:06:24.839Z,97765.77
2019-01-16T12:09:31.643Z,97753.85
2019-01-16T12:12:35.040Z,97755.66
2019-01-16T12:15:35.860Z,97748.30
2019-01-16T12:18:36.513Z,97741.77
2019-01-16T12:21:26.610Z,97734.44
2019-01-16T12:24:33.426Z,97730.02
2019-01-16T12:27:22.124Z,97732.47
2019-01-16T12:30:26.284Z,97719.74
2019-01-16T12:33:17.736Z,97724.48
2019-01-16T12:36:19.018Z,97711.09
2019-01-16T12:39:26.122Z,97704.58
2019-01-16T12:42:20.718Z,97699.84
2019-01-16T12:45:12.522Z,97700.47
2019-01-16T12:48:10.246Z,97684.34
2019-01-16T12:51:02.017Z,97685.48
2019-01-16T12:53:59.994Z,97681.72
2019-01-16T12:56:51.594Z,97677.30
2019-01-16T12:59:40.727Z,97671.58
2019-01-16T13:02:32.462Z,97660.12
2019-01-16T13:05:33.375Z,97659.03
2019-01-16T13:08:36.690Z,97652.25
2019-01-16T13:11:25.928Z,97669.20
2019-01-16T13:14:15.102Z,97661.16
2019-01-16T13:17:06.758Z,97665.73
2019-01-16T13:19:55.613Z,97657.94
2019-01-16T13:22:46.235Z,97659.84
2019-01-16T13:25:46.574Z,97674.11
2019-01-16T13:28:40.885Z,97682.06
2019-01-16T13:31:29.533Z,97671.39
2019-01-16T13:34:20.999Z,97666.50
2019-01-16T13:37:09.868Z,97667.17
2019-01-16T13:39:58.856Z,97660.01
2019-01-16T13:43:03.693Z,97651.02
2019-01-16T13:46:04.314Z,97648.22
2019-01-16T13:49:10.977Z,97642.66
2019-01-16T13:52:00.440Z,97640.09
2019-01-16T13:55:05.090Z,97631.66
2019-01-16T13:58:05.873Z,97630.78
2019-01-16T14:00:57.143Z,97618.98
2019-01-16T14:03:55.002Z,97617.34
2019-01-16T14:06:50.010Z,97614.16
2019-01-16T14:09:38.675Z,97614.66
2019-01-16T14:12:27.567Z,97611.93
2019-01-16T14:15:26.162Z,97612.41
2019-01-16T14:18:14.941Z,97617.55
2019-01-16T14:21:12.486Z,97609.91
2019-01-16T14:24:01.456Z,97625.75
2019-01-16T14:26:53.017Z,97616.54
2019-01-16T14:29:42.413Z,97612.37
2019-01-16T14:32:31.437Z,97607.33
2019-01-16T14:35:28.931Z,97601.96
2019-01-16T14:38:20.597Z,97603.18
2019-01-16T14:41:27.024Z,97591.86
2019-01-16T14:44:18.801Z,97583.59
2019-01-16T14:47:13.377Z,97570.48
2019-01-16T14:50:08.108Z,97574.80
2019-01-16T14:53:13.007Z,97564.09
2019-01-16T14:56:07.649Z,97558.69
2019-01-16T14:58:56.248Z,97556.06
2019-01-16T15:01:47.593Z,97558.48
2019-01-16T15:04:39.972Z,97558.42
2019-01-16T15:07:38.261Z,97544.08
2019-01-16T15:10:36.139Z,97540.03
2019-01-16T15:13:25.262Z,97540.56
2019-01-16T15:16:20.198Z,97530.34
2019-01-16T15:19:20.577Z,97538.15
2019-01-16T15:22:14.838Z,97530.73
2019-01-16T15:25:09.332Z,97542.27
2019-01-16T15:27:57.754Z,97534.23
2019-01-16T15:31:01.659Z,97540.08
2019-01-16T15:33:50.712Z,97522.63
2019-01-16T15:36:39.762Z,97531.62
2019-01-16T15:39:44.419Z,97517.20
2019-01-16T15:42:48.835Z,97506.16
2019-01-16T15:45:49.391Z,97500.56
2019-01-16T15:48:41.002Z,97485.17
2019-01-16T15:51:45.696Z,97470.21
2019-01-16T15:54:40.471Z,97476.80
2019-01-16T15:57:29.373Z,97473.30
2019-01-16T16:00:18.822Z,97473.45
2019-01-16T16:03:10.134Z,97454.15
2019-01-16T16:05:58.990Z,97445.55
2019-01-16T16:08:50.380Z,97444.48
2019-01-16T16:11:44.730Z,97448.17
2019-01-16T16:14:39.150Z,97435.02
2019-01-16T16:17:28.000Z,97437.62
2019-01-16T16:20:26.030Z,97439.75
2019-01-16T16:23:14.770Z,97431.40
2019-01-16T16:26:15.838Z,97437.63
2019-01-16T16:29:04.492Z,97431.14
2019-01-16T16:31:53.120Z,97428.35
2019-01-16T16:34:47.267Z,97410.67
2019-01-16T16:37:52.088Z,97411.35
2019-01-16T16:40:41.019Z,97416.01
2019-01-16T16:43:45.761Z,97416.39
2019-01-16T16:46:38.675Z,97411.55
2019-01-16T16:49:45.278Z,97401.96
2019-01-16T16:52:36.684Z,97406.47
2019-01-16T16:55:25.348Z,97396.31
2019-01-16T16:58:32.173Z,97394.19
2019-01-16T17:01:26.826Z,97396.13
2019-01-16T17:04:15.789Z,97400.98
2019-01-16T17:07:20.493Z,97401.33
2019-01-16T17:10:15.347Z,97396.63
2019-01-16T17:13:04.140Z,97386.83
2019-01-16T17:16:01.724Z,97396.48
2019-01-16T17:18:50.198Z,97385.17
2019-01-16T17:21:41.942Z,97387.48
2019-01-16T17:24:33.396Z,97381.22
2019-01-16T17:27:38.397Z,97377.15
2019-01-16T17:30:42.131Z,97366.65
2019-01-16T17:33:30.882Z,97360.34
2019-01-16T17:36:19.569Z,97366.56
2019-01-16T17:39:15.376Z,97349.27
2019-01-16T17:42:04.113Z,97356.83
2019-01-16T17:44:53.129Z,97345.60
2019-01-16T17:47:41.728Z,97354.03
2019-01-16T17:50:48.510Z,97343.66
2019-01-16T17:53:48.949Z,97338.56
2019-01-16T17:56:58.493Z,97337.34
2019-01-16T18:00:05.289Z,97342.07
2019-01-16T18:02:54.004Z,97334.88
2019-01-16T18:05:59.026Z,97334.63
2019-01-16T18:08:50.612Z,97333.99
2019-01-16T18:11:57.872Z,97339.74
2019-01-16T18:15:04.227Z,97326.41
2019-01-16T18:18:11.055Z,97324.08
2019-01-16T18:20:59.968Z,97332.98
2019-01-16T18:24:07.272Z,97321.44
2019-01-16T18:26:55.814Z,97323.24
2019-01-16T18:29:50.303Z,97316.42
2019-01-16T18:32:39.297Z,97307.92
2019-01-16T18:35:40.242Z,97310.13
2019-01-16T18:38:29.480Z,97304.85
2019-01-16T18:41:36.502Z,97288.77
2019-01-16T18:44:37.247Z,97288.52
2019-01-16T18:47:28.808Z,97295.50
2019-01-16T18:50:20.459Z,97294.43
2019-01-16T18:53:18.672Z,97281.03
2019-01-16T18:56:13.003Z,97270.70
2019-01-16T18:59:10.972Z,97268.70
2019-01-16T19:02:00.286Z,97280.25
2019-01-16T19:04:49.042Z,97267.61
2019-01-16T19:07:54.096Z,97267.20
2019-01-16T19:10:42.862Z,97269.00
2019-01-16T19:13:40.222Z,97263.87
2019-01-16T19:16:38.196Z,97260.33
2019-01-16T19:19:27.461Z,97257.98
2019-01-16T19:22:16.321Z,97249.50
2019-01-16T19:25:20.945Z,97243.47
2019-01-16T19:28:12.527Z,97239.75
2019-01-16T19:31:03.777Z,97248.57
2019-01-16T19:33:55.225Z,97238.62
2019-01-16T19:36:44.428Z,97235.97
2019-01-16T19:39:36.603Z,97234.17
2019-01-16T19:42:25.708Z,97233.55
2019-01-16T19:45:20.336Z,97220.56
2019-01-16T19:48:14.656Z,97218.37
2019-01-16T19:51:03.394Z,97218.44
2019-01-16T19:53:55.412Z,97223.58
2019-01-16T19:56:53.493Z,97217.70
2019-01-16T19:59:45.140Z,97208.88
2019-01-16T20:02:33.960Z,97211.41
2019-01-16T20:05:28.919Z,97209.00
2019-01-16T20:08:17.783Z,97206.86
2019-01-16T20:11:12.779Z,97210.13
2019-01-16T20:14:01.497Z,97210.16
2019-01-16T20:17:02.416Z,97207.10
2019-01-16T20:19:53.956Z,97208.03
2019-01-16T20:22:51.548Z,97193.84
2019-01-16T20:25:56.333Z,97194.71
2019-01-16T20:28:47.844Z,97190.00
2019-01-16T20:31:42.551Z,97192.77
2019-01-16T20:34:34.244Z,97193.00
2019-01-16T20:37:25.783Z,97189.22
2019-01-16T20:40:15.189Z,97180.50
2019-01-16T20:43:12.445Z,97194.65
2019-01-16T20:46:04.138Z,97193.75
2019-01-16T20:49:11.082Z,97193.45
2019-01-16T20:52:11.840Z,97194.50
2019-01-16T20:55:09.446Z,97188.41
2019-01-16T20:58:14.588Z,97178.01
2019-01-16T21:01:09.066Z,97175.07
2019-01-16T21:04:15.965Z,97170.47
2019-01-16T21:07:13.550Z,97169.39
2019-01-16T21:10:05.431Z,97171.09
2019-01-16T21:13:00.212Z,97169.95
2019-01-16T21:15:51.988Z,97163.23
2019-01-16T21:18:55.244Z,97147.23
2019-01-16T21:21:44.172Z,97149.81
2019-01-16T21:24:48.570Z,97142.83
2019-01-16T21:27:37.395Z,97139.47
2019-01-16T21:30:41.182Z,97129.80
2019-01-16T21:33:30.047Z,97129.66
2019-01-16T21:36:36.985Z,97124.07
2019-01-16T21:39:43.829Z,97118.00
2019-01-16T21:42:32.579Z,97112.77
2019-01-16T21:45:26.874Z,97111.48
2019-01-16T21:48:21.745Z,97102.52
2019-01-16T21:51:10.305Z,97107.14
2019-01-16T21:54:13.769Z,97095.88
2019-01-16T21:57:18.663Z,97106.20
2019-01-16T22:00:34.281Z,97102.77
2019-01-16T22:03:26.001Z,97097.68
2019-01-16T22:06:17.629Z,97076.84
2019-01-16T22:09:15.010Z,97086.27
2019-01-16T22:12:08.483Z,97089.41
2019-01-16T22:14:59.973Z,97087.10
2019-01-16T22:17:51.835Z,97079.95
2019-01-16T22:20:40.845Z,97073.41
2019-01-16T22:23:38.280Z,97059.77
2019-01-16T22:26:41.765Z,97063.09
2019-01-16T22:29:46.242Z,97057.73
2019-01-16T22:32:35.144Z,97073.19
2019-01-16T22:35:40.217Z,97061.71
2019-01-16T22:38:40.857Z,97061.89
2019-01-16T22:41:35.990Z,97055.33
2019-01-16T22:44:36.566Z,97042.61
2019-01-16T22:47:40.194Z,97048.96
2019-01-16T22:50:35.342Z,97059.44
2019-01-16T22:53:43.414Z,97048.02
2019-01-16T22:56:32.665Z,97042.96
2019-01-16T22:59:30.249Z,97039.16
2019-01-16T23:02:35.081Z,97040.47
2019-01-16T23:05:24.051Z,97048.88
2019-01-16T23:08:28.121Z,97052.79
2019-01-16T23:11:33.235Z,97042.31
2019-01-16T23:14:38.104Z,97045.89
2019-01-16T23:17:35.665Z,97054.59
2019-01-16T23:20:27.088Z,97045.48
2019-01-16T23:23:17.128Z,97042.03
2019-01-16T23:26:21.840Z,97043.20
2019-01-16T23:29:20.401Z,97041.55
2019-01-16T23:32:09.248Z,97038.96
2019-01-16T23:34:58.123Z,97035.55
2019-01-16T23:37:46.969Z,97029.61
2019-01-16T23:40:35.992Z,97025.46
2019-01-16T23:43:24.955Z,97021.07
2019-01-16T23:46:32.163Z,97005.16
2019-01-16T23:49:27.167Z,97020.19
2019-01-16T23:52:15.724Z,97015.90
2019-01-16T23:55:19.827Z,97017.55
2019-01-16T23:58:11.377Z,97011.04
